sensor_id;sensor_type;location;lat;lon;timestamp;pressure;altitude;pressure_sealevel;temperature
43802;BMP280;29429;51.074;13.764;2022-12-07T00:03:37;99792.91;;;4.55
43802;BMP280;29429;51.074;13.764;2022-12-07T00:06:06;99789.75;;;4.59
43802;BMP280;29429;51.074;13.764;2022-12-07T00:08:34;99785.13;;;4.61
43802;BMP280;29429;51.074;13.764;2022-12-07T00:11:05;99788.78;;;4.60
43802;BMP280;29429;51.074;13.764;2022-12-07T00:13:33;99780.34;;;4.57
43802;BMP280;29429;51.074;13.764;2022-12-07T00:16:06;99775.41;;;4.54
43802;BMP280;29429;51.074;13.764;2022-12-07T00:18:34;99788.59;;;4.54
43802;BMP280;29429;51.074;13.764;2022-12-07T00:21:10;99774.25;;;4.56
43802;BMP280;29429;51.074;13.764;2022-12-07T00:23:38;99772.75;;;4.54
43802;BMP280;29429;51.074;13.764;2022-12-07T00:26:14;99772.25;;;4.50
43802;BMP280;29429;51.074;13.764;2022-12-07T00:28:45;99761.69;;;4.50
43802;BMP280;29429;51.074;13.764;2022-12-07T00:31:13;99769.28;;;4.53
43802;BMP280;29429;51.074;13.764;2022-12-07T00:33:41;99757.75;;;4.46
43802;BMP280;29429;51.074;13.764;2022-12-07T00:36:12;99765.50;;;4.48
43802;BMP280;29429;51.074;13.764;2022-12-07T00:38:39;99760.56;;;4.45
43802;BMP280;29429;51.074;13.764;2022-12-07T00:41:18;99758.06;;;4.51
43802;BMP280;29429;51.074;13.764;2022-12-07T00:43:47;99759.88;;;4.51
43802;BMP280;29429;51.074;13.764;2022-12-07T00:46:15;99758.72;;;4.53
43802;BMP280;29429;51.074;13.764;2022-12-07T00:48:42;99756.09;;;4.45
43802;BMP280;29429;51.074;13.764;2022-12-07T00:51:11;99761.69;;;4.50
43802;BMP280;29429;51.074;13.764;2022-12-07T00:53:39;99751.31;;;4.49
43802;BMP280;29429;51.074;13.764;2022-12-07T00:56:28;99752.59;;;4.53
43802;BMP280;29429;51.074;13.764;2022-12-07T00:59:00;99750.47;;;4.56
43802;BMP280;29429;51.074;13.764;2022-12-07T01:01:30;99753.94;;;4.57
43802;BMP280;29429;51.074;13.764;2022-12-07T01:03:58;99750.47;;;4.56
43802;BMP280;29429;51.074;13.764;2022-12-07T01:06:25;99757.56;;;4.56
43802;BMP280;29429;51.074;13.764;2022-12-07T01:08:52;99746.03;;;4.49
43802;BMP280;29429;51.074;13.764;2022-12-07T01:11:23;99753.28;;;4.47
43802;BMP280;29429;51.074;13.764;2022-12-07T01:13:51;99749.81;;;4.46
43802;BMP280;29429;51.074;13.764;2022-12-07T01:16:19;99743.56;;;4.39
43802;BMP280;29429;51.074;13.764;2022-12-07T01:18:48;99747.19;;;4.46
43802;BMP280;29429;51.074;13.764;2022-12-07T01:21:27;99751.50;;;4.55
43802;BMP280;29429;51.074;13.764;2022-12-07T01:23:57;99744.84;;;4.67
43802;BMP280;29429;51.074;13.764;2022-12-07T01:26:25;99738.59;;;4.68
43802;BMP280;29429;51.074;13.764;2022-12-07T01:28:52;99737.59;;;4.69
43802;BMP280;29429;51.074;13.764;2022-12-07T01:31:23;99745.81;;;4.74
43802;BMP280;29429;51.074;13.764;2022-12-07T01:33:53;99745.34;;;4.71
43802;BMP280;29429;51.074;13.764;2022-12-07T01:38:51;99738.22;;;4.79
43802;BMP280;29429;51.074;13.764;2022-12-07T01:41:20;99746.47;;;4.84
43802;BMP280;29429;51.074;13.764;2022-12-07T01:44:12;99739.69;;;4.90
43802;BMP280;29429;51.074;13.764;2022-12-07T01:46:40;99738.19;;;4.96
43802;BMP280;29429;51.074;13.764;2022-12-07T01:49:28;99738.22;;;4.87
43802;BMP280;29429;51.074;13.764;2022-12-07T01:54:36;99738.22;;;4.87
43802;BMP280;29429;51.074;13.764;2022-12-07T01:57:03;99744.50;;;4.86
43802;BMP280;29429;51.074;13.764;2022-12-07T01:59:31;99742.19;;;4.91
43802;BMP280;29429;51.074;13.764;2022-12-07T02:01:58;99743.16;;;4.90
43802;BMP280;29429;51.074;13.764;2022-12-07T02:04:26;99743.00;;;4.92
43802;BMP280;29429;51.074;13.764;2022-12-07T02:06:54;99739.53;;;4.91
43802;BMP280;29429;51.074;13.764;2022-12-07T02:09:21;99731.78;;;4.82
43802;BMP280;29429;51.074;13.764;2022-12-07T02:11:48;99733.63;;;4.81
43802;BMP280;29429;51.074;13.764;2022-12-07T02:14:15;99741.38;;;4.83
43802;BMP280;29429;51.074;13.764;2022-12-07T02:16:51;99735.25;;;4.82
43802;BMP280;29429;51.074;13.764;2022-12-07T02:22:26;99732.97;;;4.63
43802;BMP280;29429;51.074;13.764;2022-12-07T02:30:35;99731.03;;;4.33
43802;BMP280;29429;51.074;13.764;2022-12-07T02:33:26;99719.81;;;4.15
43802;BMP280;29429;51.074;13.764;2022-12-07T02:36:02;99731.97;;;4.08
43802;BMP280;29429;51.074;13.764;2022-12-07T02:38:47;99727.72;;;3.99
43802;BMP280;29429;51.074;13.764;2022-12-07T02:41:24;99733.94;;;3.90
43802;BMP280;29429;51.074;13.764;2022-12-07T02:43:58;99711.84;;;3.75
43802;BMP280;29429;51.074;13.764;2022-12-07T02:46:32;99707.88;;;3.71
43802;BMP280;29429;51.074;13.764;2022-12-07T02:49:00;99721.88;;;3.71
43802;BMP280;29429;51.074;13.764;2022-12-07T02:51:31;99723.72;;;3.71
43802;BMP280;29429;51.074;13.764;2022-12-07T02:53:59;99713.16;;;3.62
43802;BMP280;29429;51.074;13.764;2022-12-07T03:09:59;99696.16;;;3.57
43802;BMP280;29429;51.074;13.764;2022-12-07T03:12:32;99696.94;;;3.57
43802;BMP280;29429;51.074;13.764;2022-12-07T03:15:22;99697.47;;;3.61
43802;BMP280;29429;51.074;13.764;2022-12-07T03:17:55;99693.69;;;3.72
43802;BMP280;29429;51.074;13.764;2022-12-07T03:20:25;99683.81;;;3.74
43802;BMP280;29429;51.074;13.764;2022-12-07T03:22:54;99679.88;;;3.78
43802;BMP280;29429;51.074;13.764;2022-12-07T03:25:21;99685.28;;;3.76
43802;BMP280;29429;51.074;13.764;2022-12-07T03:27:59;99682.50;;;3.78
43802;BMP280;29429;51.074;13.764;2022-12-07T03:36:40;99678.16;;;3.52
43802;BMP280;29429;51.074;13.764;2022-12-07T03:41:48;99670.06;;;3.38
43802;BMP280;29429;51.074;13.764;2022-12-07T03:44:16;99679.47;;;3.40
43802;BMP280;29429;51.074;13.764;2022-12-07T03:57:44;99677.34;;;3.44
43802;BMP280;29429;51.074;13.764;2022-12-07T04:00:13;99676.00;;;3.40
43802;BMP280;29429;51.074;13.764;2022-12-07T04:02:41;99676.34;;;3.45
43802;BMP280;29429;51.074;13.764;2022-12-07T04:05:10;99670.59;;;3.41
43802;BMP280;29429;51.074;13.764;2022-12-07T04:18:27;99654.41;;;3.44
43802;BMP280;29429;51.074;13.764;2022-12-07T04:20:54;99649.50;;;3.41
43802;BMP280;29429;51.074;13.764;2022-12-07T04:23:21;99646.19;;;3.39
43802;BMP280;29429;51.074;13.764;2022-12-07T04:25:48;99643.53;;;3.31
43802;BMP280;29429;51.074;13.764;2022-12-07T04:28:15;99637.88;;;3.18
43802;BMP280;29429;51.074;13.764;2022-12-07T04:30:42;99653.88;;;3.17
43802;BMP280;29429;51.074;13.764;2022-12-07T04:33:09;99645.44;;;3.13
43802;BMP280;29429;51.074;13.764;2022-12-07T04:35:35;99645.44;;;3.13
43802;BMP280;29429;51.074;13.764;2022-12-07T04:38:02;99631.41;;;3.04
43802;BMP280;29429;51.074;13.764;2022-12-07T04:40:29;99640.00;;;3.06
43802;BMP280;29429;51.074;13.764;2022-12-07T04:42:56;99625.34;;;3.04
43802;BMP280;29429;51.074;13.764;2022-12-07T04:45:23;99625.34;;;3.04
43802;BMP280;29429;51.074;13.764;2022-12-07T04:47:50;99618.59;;;3.01
43802;BMP280;29429;51.074;13.764;2022-12-07T04:50:17;99616.72;;;2.94
43802;BMP280;29429;51.074;13.764;2022-12-07T04:52:44;99616.25;;;2.90
43802;BMP280;29429;51.074;13.764;2022-12-07T04:55:11;99613.94;;;2.87
43802;BMP280;29429;51.074;13.764;2022-12-07T04:57:37;99614.41;;;2.83
43802;BMP280;29429;51.074;13.764;2022-12-07T05:00:05;99606.47;;;2.75
43802;BMP280;29429;51.074;13.764;2022-12-07T05:02:32;99600.53;;;2.73
43802;BMP280;29429;51.074;13.764;2022-12-07T05:04:59;99605.00;;;2.72
43802;BMP280;29429;51.074;13.764;2022-12-07T05:07:26;99596.25;;;2.72
43802;BMP280;29429;51.074;13.764;2022-12-07T05:09:53;99603.03;;;2.74
43802;BMP280;29429;51.074;13.764;2022-12-07T05:12:19;99589.69;;;2.76
43802;BMP280;29429;51.074;13.764;2022-12-07T05:14:46;99596.59;;;2.77
43802;BMP280;29429;51.074;13.764;2022-12-07T05:17:13;99598.31;;;2.86
43802;BMP280;29429;51.074;13.764;2022-12-07T05:19:40;99600.59;;;2.89
43802;BMP280;29429;51.074;13.764;2022-12-07T05:22:07;99598.00;;;2.97
43802;BMP280;29429;51.074;13.764;2022-12-07T05:24:34;99585.81;;;2.96
43802;BMP280;29429;51.074;13.764;2022-12-07T05:27:01;99584.16;;;2.95
43802;BMP280;29429;51.074;13.764;2022-12-07T05:29:28;99582.38;;;3.03
43802;BMP280;29429;51.074;13.764;2022-12-07T05:31:55;99593.44;;;3.07
43802;BMP280;29429;51.074;13.764;2022-12-07T05:34:22;99591.47;;;3.17
43802;BMP280;29429;51.074;13.764;2022-12-07T05:36:49;99574.34;;;3.21
43802;BMP280;29429;51.074;13.764;2022-12-07T05:39:17;99579.81;;;3.36
43802;BMP280;29429;51.074;13.764;2022-12-07T05:41:43;99579.81;;;3.44
43802;BMP280;29429;51.074;13.764;2022-12-07T05:44:56;99575.34;;;3.44
43802;BMP280;29429;51.074;13.764;2022-12-07T05:47:23;99570.59;;;3.48
43802;BMP280;29429;51.074;13.764;2022-12-07T05:50:04;99568.94;;;3.47
43802;BMP280;29429;51.074;13.764;2022-12-07T05:53:00;99566.81;;;3.58
43802;BMP280;29429;51.074;13.764;2022-12-07T05:55:34;99557.91;;;3.51
43802;BMP280;29429;51.074;13.764;2022-12-07T05:58:01;99563.34;;;3.58
43802;BMP280;29429;51.074;13.764;2022-12-07T06:00:55;99550.81;;;3.68
43802;BMP280;29429;51.074;13.764;2022-12-07T06:03:22;99549.69;;;3.71
43802;BMP280;29429;51.074;13.764;2022-12-07T06:05:49;99560.06;;;3.80
43802;BMP280;29429;51.074;13.764;2022-12-07T06:08:34;99546.22;;;3.78
43802;BMP280;29429;51.074;13.764;2022-12-07T06:11:01;99553.94;;;3.88
43802;BMP280;29429;51.074;13.764;2022-12-07T06:13:50;99543.06;;;3.91
43802;BMP280;29429;51.074;13.764;2022-12-07T06:16:16;99540.09;;;3.94
43802;BMP280;29429;51.074;13.764;2022-12-07T06:18:43;99542.84;;;4.08
43802;BMP280;29429;51.074;13.764;2022-12-07T06:21:13;99537.91;;;4.05
43802;BMP280;29429;51.074;13.764;2022-12-07T06:23:44;99528.50;;;4.03
43802;BMP280;29429;51.074;13.764;2022-12-07T06:26:13;99538.91;;;4.12
43802;BMP280;29429;51.074;13.764;2022-12-07T06:28:40;99530.47;;;4.17
43802;BMP280;29429;51.074;13.764;2022-12-07T06:31:09;99530.78;;;4.22
43802;BMP280;29429;51.074;13.764;2022-12-07T06:33:39;99531.09;;;4.27
43802;BMP280;29429;51.074;13.764;2022-12-07T06:36:07;99543.31;;;4.28
43802;BMP280;29429;51.074;13.764;2022-12-07T06:38:34;99530.44;;;4.25
43802;BMP280;29429;51.074;13.764;2022-12-07T06:41:02;99535.22;;;4.29
43802;BMP280;29429;51.074;13.764;2022-12-07T06:43:29;99545.59;;;4.39
43802;BMP280;29429;51.074;13.764;2022-12-07T06:45:56;99536.19;;;4.37
43802;BMP280;29429;51.074;13.764;2022-12-07T06:48:23;99544.75;;;4.39
43802;BMP280;29429;51.074;13.764;2022-12-07T06:50:54;99550.16;;;4.45
43802;BMP280;29429;51.074;13.764;2022-12-07T06:53:30;99531.56;;;4.39
43802;BMP280;29429;51.074;13.764;2022-12-07T06:56:01;99522.81;;;4.38
43802;BMP280;29429;51.074;13.764;2022-12-07T06:58:29;99528.41;;;4.43
43802;BMP280;29429;51.074;13.764;2022-12-07T07:01:00;99548.47;;;4.60
43802;BMP280;29429;51.074;13.764;2022-12-07T07:03:39;99528.88;;;4.55
43802;BMP280;29429;51.074;13.764;2022-12-07T07:06:07;99534.78;;;4.57
43802;BMP280;29429;51.074;13.764;2022-12-07T07:08:35;99540.25;;;4.55
43802;BMP280;29429;51.074;13.764;2022-12-07T07:11:02;99546.66;;;4.53
43802;BMP280;29429;51.074;13.764;2022-12-07T07:13:30;99548.31;;;4.54
43802;BMP280;29429;51.074;13.764;2022-12-07T07:15:57;99549.50;;;4.51
43802;BMP280;29429;51.074;13.764;2022-12-07T07:18:24;99544.53;;;4.48
43802;BMP280;29429;51.074;13.764;2022-12-07T07:20:52;99551.16;;;4.52
43802;BMP280;29429;51.074;13.764;2022-12-07T07:23:20;99549.84;;;4.40
43802;BMP280;29429;51.074;13.764;2022-12-07T07:25:50;99557.13;;;4.38
43802;BMP280;29429;51.074;13.764;2022-12-07T07:28:17;99558.81;;;4.31
43802;BMP280;29429;51.074;13.764;2022-12-07T07:30:44;99566.03;;;4.29
43802;BMP280;29429;51.074;13.764;2022-12-07T07:33:11;99559.47;;;4.25
43802;BMP280;29429;51.074;13.764;2022-12-07T07:35:39;99565.91;;;4.22
43802;BMP280;29429;51.074;13.764;2022-12-07T07:38:06;99565.91;;;4.22
43802;BMP280;29429;51.074;13.764;2022-12-07T07:40:33;99578.78;;;4.25
43802;BMP280;29429;51.074;13.764;2022-12-07T07:43:01;99566.25;;;4.19
43802;BMP280;29429;51.074;13.764;2022-12-07T07:45:31;99567.41;;;4.17
43802;BMP280;29429;51.074;13.764;2022-12-07T07:47:58;99562.13;;;4.17
43802;BMP280;29429;51.074;13.764;2022-12-07T07:50:25;99553.91;;;4.12
43802;BMP280;29429;51.074;13.764;2022-12-07T07:52:52;99574.34;;;4.18
43802;BMP280;29429;51.074;13.764;2022-12-07T07:55:19;99558.16;;;4.21
43802;BMP280;29429;51.074;13.764;2022-12-07T07:57:46;99571.00;;;4.32
43802;BMP280;29429;51.074;13.764;2022-12-07T08:00:20;99563.75;;;4.34
43802;BMP280;29429;51.074;13.764;2022-12-07T08:02:47;99571.97;;;4.39
43802;BMP280;29429;51.074;13.764;2022-12-07T08:05:14;99562.56;;;4.45
43802;BMP280;29429;51.074;13.764;2022-12-07T08:07:48;99561.41;;;4.47
43802;BMP280;29429;51.074;13.764;2022-12-07T08:10:40;99550.84;;;4.47
43802;BMP280;29429;51.074;13.764;2022-12-07T08:17:59;99560.34;;;4.64
43802;BMP280;29429;51.074;13.764;2022-12-07T08:24:24;99537.66;;;4.78
43802;BMP280;29429;51.074;13.764;2022-12-07T08:27:37;99548.81;;;4.88
43802;BMP280;29429;51.074;13.764;2022-12-07T08:35:07;99537.88;;;4.99
43802;BMP280;29429;51.074;13.764;2022-12-07T08:37:35;99546.88;;;5.13
43802;BMP280;29429;51.074;13.764;2022-12-07T08:40:04;99540.75;;;5.12
43802;BMP280;29429;51.074;13.764;2022-12-07T08:42:31;99555.41;;;5.23
43802;BMP280;29429;51.074;13.764;2022-12-07T08:45:10;99557.34;;;5.29
43802;BMP280;29429;51.074;13.764;2022-12-07T08:47:50;99561.75;;;5.36
43802;BMP280;29429;51.074;13.764;2022-12-07T08:50:18;99547.22;;;5.32
43802;BMP280;29429;51.074;13.764;2022-12-07T08:52:50;99560.75;;;5.37
43802;BMP280;29429;51.074;13.764;2022-12-07T08:55:18;99566.50;;;5.41
43802;BMP280;29429;51.074;13.764;2022-12-07T08:57:49;99554.59;;;5.45
43802;BMP280;29429;51.074;13.764;2022-12-07T09:00:54;99563.81;;;5.49
43802;BMP280;29429;51.074;13.764;2022-12-07T09:07:56;99558.44;;;5.57
43802;BMP280;29429;51.074;13.764;2022-12-07T09:11:08;99568.19;;;5.79
43802;BMP280;29429;51.074;13.764;2022-12-07T09:13:46;99562.50;;;5.90
43802;BMP280;29429;51.074;13.764;2022-12-07T09:16:17;99555.03;;;5.94
43802;BMP280;29429;51.074;13.764;2022-12-07T09:18:47;99561.69;;;6.04
43802;BMP280;29429;51.074;13.764;2022-12-07T09:21:14;99545.00;;;6.04
43802;BMP280;29429;51.074;13.764;2022-12-07T09:23:42;99565.91;;;6.13
43802;BMP280;29429;51.074;13.764;2022-12-07T09:26:10;99541.81;;;6.08
43802;BMP280;29429;51.074;13.764;2022-12-07T09:28:39;99556.59;;;6.18
43802;BMP280;29429;51.074;13.764;2022-12-07T09:31:06;99554.97;;;6.17
43802;BMP280;29429;51.074;13.764;2022-12-07T09:33:59;99554.97;;;6.31
43802;BMP280;29429;51.074;13.764;2022-12-07T09:36:30;99547.66;;;6.33
43802;BMP280;29429;51.074;13.764;2022-12-07T09:39:25;99562.19;;;6.37
43802;BMP280;29429;51.074;13.764;2022-12-07T09:45:32;99565.59;;;6.46
43802;BMP280;29429;51.074;13.764;2022-12-07T09:48:00;99538.63;;;6.42
43802;BMP280;29429;51.074;13.764;2022-12-07T09:51:13;99555.16;;;6.59
43802;BMP280;29429;51.074;13.764;2022-12-07T09:53:50;99550.09;;;6.79
43802;BMP280;29429;51.074;13.764;2022-12-07T10:00:44;99539.66;;;6.92
43802;BMP280;29429;51.074;13.764;2022-12-07T10:04:17;99527.78;;;6.88
43802;BMP280;29429;51.074;13.764;2022-12-07T10:06:45;99529.25;;;6.90
43802;BMP280;29429;51.074;13.764;2022-12-07T10:09:17;99533.00;;;6.96
43802;BMP280;29429;51.074;13.764;2022-12-07T10:12:17;99516.25;;;6.95
43802;BMP280;29429;51.074;13.764;2022-12-07T10:15:05;99517.59;;;7.06
43802;BMP280;29429;51.074;13.764;2022-12-07T10:17:51;99511.34;;;7.13
43802;BMP280;29429;51.074;13.764;2022-12-07T10:20:26;99530.16;;;7.40
43802;BMP280;29429;51.074;13.764;2022-12-07T10:22:59;99524.13;;;7.46
43802;BMP280;29429;51.074;13.764;2022-12-07T10:25:33;99503.59;;;7.54
43802;BMP280;29429;51.074;13.764;2022-12-07T10:30:59;99517.72;;;7.89
43802;BMP280;29429;51.074;13.764;2022-12-07T10:33:52;99525.97;;;7.94
43802;BMP280;29429;51.074;13.764;2022-12-07T10:45:17;99492.78;;;7.34
43802;BMP280;29429;51.074;13.764;2022-12-07T11:17:56;99492.25;;;6.82
43802;BMP280;29429;51.074;13.764;2022-12-07T11:24:40;99476.25;;;6.90
43802;BMP280;29429;51.074;13.764;2022-12-07T11:37:45;99471.66;;;6.63
43802;BMP280;29429;51.074;13.764;2022-12-07T11:40:35;99473.66;;;6.61
43802;BMP280;29429;51.074;13.764;2022-12-07T11:43:18;99480.53;;;6.55
43802;BMP280;29429;51.074;13.764;2022-12-07T11:46:02;99485.66;;;6.42
43802;BMP280;29429;51.074;13.764;2022-12-07T11:51:56;99482.47;;;5.88
43802;BMP280;29429;51.074;13.764;2022-12-07T11:54:33;99493.09;;;5.80
43802;BMP280;29429;51.074;13.764;2022-12-07T11:57:51;99484.59;;;5.70
43802;BMP280;29429;51.074;13.764;2022-12-07T12:00:22;99491.28;;;5.66
43802;BMP280;29429;51.074;13.764;2022-12-07T12:03:05;99505.13;;;5.68
43802;BMP280;29429;51.074;13.764;2022-12-07T12:05:36;99494.63;;;5.60
43802;BMP280;29429;51.074;13.764;2022-12-07T12:14:05;99478.63;;;5.53
43802;BMP280;29429;51.074;13.764;2022-12-07T12:19:57;99483.22;;;5.60
43802;BMP280;29429;51.074;13.764;2022-12-07T12:22:35;99475.84;;;5.55
43802;BMP280;29429;51.074;13.764;2022-12-07T12:25:06;99481.69;;;5.65
43802;BMP280;29429;51.074;13.764;2022-12-07T12:27:36;99486.34;;;5.78
43802;BMP280;29429;51.074;13.764;2022-12-07T12:30:06;99469.66;;;5.77
43802;BMP280;29429;51.074;13.764;2022-12-07T12:32:42;99482.09;;;5.91
43802;BMP280;29429;51.074;13.764;2022-12-07T12:35:33;99487.59;;;5.90
43802;BMP280;29429;51.074;13.764;2022-12-07T12:38:30;99479.38;;;5.99
43802;BMP280;29429;51.074;13.764;2022-12-07T12:40:58;99462.50;;;6.00
43802;BMP280;29429;51.074;13.764;2022-12-07T12:43:51;99452.63;;;6.09
43802;BMP280;29429;51.074;13.764;2022-12-07T12:47:40;99454.00;;;6.20
43802;BMP280;29429;51.074;13.764;2022-12-07T12:57:39;99458.00;;;6.30
43802;BMP280;29429;51.074;13.764;2022-12-07T13:00:21;99460.56;;;6.24
43802;BMP280;29429;51.074;13.764;2022-12-07T13:02:58;99467.69;;;6.23
43802;BMP280;29429;51.074;13.764;2022-12-07T13:05:28;99461.50;;;6.16
43802;BMP280;29429;51.074;13.764;2022-12-07T13:07:58;99473.53;;;6.19
43802;BMP280;29429;51.074;13.764;2022-12-07T13:18:36;99479.53;;;4.55
43802;BMP280;29429;51.074;13.764;2022-12-07T13:26:38;99480.97;;;4.19
43802;BMP280;29429;51.074;13.764;2022-12-07T13:29:36;99489.22;;;4.16
43802;BMP280;29429;51.074;13.764;2022-12-07T13:32:03;99492.25;;;4.13
43802;BMP280;29429;51.074;13.764;2022-12-07T13:34:40;99486.28;;;4.11
43802;BMP280;29429;51.074;13.764;2022-12-07T13:37:26;99479.06;;;4.05
43802;BMP280;29429;51.074;13.764;2022-12-07T13:39:59;99477.44;;;3.96
43802;BMP280;29429;51.074;13.764;2022-12-07T13:42:34;99477.09;;;3.99
43802;BMP280;29429;51.074;13.764;2022-12-07T13:45:21;99478.41;;;3.95
43802;BMP280;29429;51.074;13.764;2022-12-07T13:47:52;99478.56;;;4.01
43802;BMP280;29429;51.074;13.764;2022-12-07T13:52:58;99479.47;;;4.24
43802;BMP280;29429;51.074;13.764;2022-12-07T13:55:26;99469.72;;;4.33
43802;BMP280;29429;51.074;13.764;2022-12-07T13:57:54;99463.75;;;4.39
43802;BMP280;29429;51.074;13.764;2022-12-07T14:00:27;99472.13;;;4.43
43802;BMP280;29429;51.074;13.764;2022-12-07T14:03:27;99473.56;;;4.53
43802;BMP280;29429;51.074;13.764;2022-12-07T14:06:23;99472.59;;;4.54
43802;BMP280;29429;51.074;13.764;2022-12-07T14:09:24;99465.00;;;4.51
43802;BMP280;29429;51.074;13.764;2022-12-07T14:11:53;99483.31;;;4.53
43802;BMP280;29429;51.074;13.764;2022-12-07T14:14:30;99471.94;;;4.52
43802;BMP280;29429;51.074;13.764;2022-12-07T14:19:51;99476.88;;;4.55
43802;BMP280;29429;51.074;13.764;2022-12-07T14:22:23;99471.13;;;4.52
43802;BMP280;29429;51.074;13.764;2022-12-07T14:24:57;99477.69;;;4.56
43802;BMP280;29429;51.074;13.764;2022-12-07T14:27:31;99465.66;;;4.53
43802;BMP280;29429;51.074;13.764;2022-12-07T14:30:05;99469.25;;;4.60
43802;BMP280;29429;51.074;13.764;2022-12-07T14:32:37;99462.00;;;4.62
43802;BMP280;29429;51.074;13.764;2022-12-07T14:35:11;99472.22;;;4.65
43802;BMP280;29429;51.074;13.764;2022-12-07T14:37:45;99460.00;;;4.64
43802;BMP280;29429;51.074;13.764;2022-12-07T14:40:15;99459.28;;;4.70
43802;BMP280;29429;51.074;13.764;2022-12-07T14:42:45;99446.38;;;4.75
43802;BMP280;29429;51.074;13.764;2022-12-07T14:45:21;99453.44;;;4.83
43802;BMP280;29429;51.074;13.764;2022-12-07T14:47:49;99454.38;;;4.90
43802;BMP280;29429;51.074;13.764;2022-12-07T14:50:56;99447.31;;;4.82
43802;BMP280;29429;51.074;13.764;2022-12-07T14:53:48;99446.72;;;4.95
43802;BMP280;29429;51.074;13.764;2022-12-07T14:56:20;99452.50;;;4.99
43802;BMP280;29429;51.074;13.764;2022-12-07T14:58:47;99448.03;;;4.99
43802;BMP280;29429;51.074;13.764;2022-12-07T15:01:20;99445.03;;;5.02
43802;BMP280;29429;51.074;13.764;2022-12-07T15:03:47;99457.56;;;5.08
43802;BMP280;29429;51.074;13.764;2022-12-07T15:06:16;99461.66;;;5.11
43802;BMP280;29429;51.074;13.764;2022-12-07T15:08:48;99459.19;;;5.09
43802;BMP280;29429;51.074;13.764;2022-12-07T15:11:17;99443.69;;;5.06
43802;BMP280;29429;51.074;13.764;2022-12-07T15:13:44;99448.13;;;5.06
43802;BMP280;29429;51.074;13.764;2022-12-07T15:16:30;99450.28;;;5.10
43802;BMP280;29429;51.074;13.764;2022-12-07T15:19:22;99465.88;;;5.20
43802;BMP280;29429;51.074;13.764;2022-12-07T15:21:54;99459.41;;;5.22
43802;BMP280;29429;51.074;13.764;2022-12-07T15:24:21;99460.16;;;5.16
43802;BMP280;29429;51.074;13.764;2022-12-07T15:26:50;99461.28;;;5.14
43802;BMP280;29429;51.074;13.764;2022-12-07T15:29:21;99469.22;;;5.14
43802;BMP280;29429;51.074;13.764;2022-12-07T15:31:50;99457.09;;;5.05
43802;BMP280;29429;51.074;13.764;2022-12-07T15:34:25;99461.53;;;5.04
43802;BMP280;29429;51.074;13.764;2022-12-07T15:37:10;99447.06;;;5.00
43802;BMP280;29429;51.074;13.764;2022-12-07T15:40:50;99475.28;;;5.00
43802;BMP280;29429;51.074;13.764;2022-12-07T15:43:17;99476.47;;;4.97
43802;BMP280;29429;51.074;13.764;2022-12-07T15:46:03;99469.75;;;4.86
43802;BMP280;29429;51.074;13.764;2022-12-07T15:48:31;99474.75;;;4.81
43802;BMP280;29429;51.074;13.764;2022-12-07T15:51:05;99459.41;;;4.77
43802;BMP280;29429;51.074;13.764;2022-12-07T15:53:33;99467.63;;;4.82
43802;BMP280;29429;51.074;13.764;2022-12-07T15:56:00;99471.28;;;4.81
43802;BMP280;29429;51.074;13.764;2022-12-07T15:58:27;99463.56;;;4.71
43802;BMP280;29429;51.074;13.764;2022-12-07T16:00:54;99463.56;;;4.71
43802;BMP280;29429;51.074;13.764;2022-12-07T16:03:21;99475.50;;;4.67
43802;BMP280;29429;51.074;13.764;2022-12-07T16:05:49;99471.72;;;4.62
43802;BMP280;29429;51.074;13.764;2022-12-07T16:08:19;99465.34;;;4.48
43802;BMP280;29429;51.074;13.764;2022-12-07T16:10:49;99464.91;;;4.45
43802;BMP280;29429;51.074;13.764;2022-12-07T16:13:25;99475.13;;;4.40
43802;BMP280;29429;51.074;13.764;2022-12-07T16:15:54;99472.97;;;4.43
43802;BMP280;29429;51.074;13.764;2022-12-07T16:18:23;99474.78;;;4.43
43802;BMP280;29429;51.074;13.764;2022-12-07T16:20:50;99473.31;;;4.40
43802;BMP280;29429;51.074;13.764;2022-12-07T16:23:17;99472.81;;;4.45
43802;BMP280;29429;51.074;13.764;2022-12-07T16:25:44;99467.34;;;4.46
43802;BMP280;29429;51.074;13.764;2022-12-07T16:28:37;99461.13;;;4.39
43802;BMP280;29429;51.074;13.764;2022-12-07T16:31:10;99463.06;;;4.45
43802;BMP280;29429;51.074;13.764;2022-12-07T16:33:43;99473.56;;;4.53
43802;BMP280;29429;51.074;13.764;2022-12-07T16:44:10;99464.66;;;4.54
43802;BMP280;29429;51.074;13.764;2022-12-07T16:46:50;99466.09;;;4.65
43802;BMP280;29429;51.074;13.764;2022-12-07T16:49:49;99475.97;;;4.71
43802;BMP280;29429;51.074;13.764;2022-12-07T16:52:24;99463.16;;;4.60
43802;BMP280;29429;51.074;13.764;2022-12-07T16:57:56;99470.06;;;4.61
43802;BMP280;29429;51.074;13.764;2022-12-07T17:00:24;99461.19;;;4.54
43802;BMP280;29429;51.074;13.764;2022-12-07T17:02:54;99469.25;;;4.60
43802;BMP280;29429;51.074;13.764;2022-12-07T17:05:22;99474.16;;;4.63
43802;BMP280;29429;51.074;13.764;2022-12-07T17:07:59;99463.97;;;4.60
43802;BMP280;29429;51.074;13.764;2022-12-07T17:10:29;99465.59;;;4.61
43802;BMP280;29429;51.074;13.764;2022-12-07T17:12:56;99469.91;;;4.62
43802;BMP280;29429;51.074;13.764;2022-12-07T17:15:24;99475.19;;;4.62
43802;BMP280;29429;51.074;13.764;2022-12-07T17:18:03;99466.31;;;4.55
43802;BMP280;29429;51.074;13.764;2022-12-07T17:20:32;99469.91;;;4.62
43802;BMP280;29429;51.074;13.764;2022-12-07T17:22:59;99475.00;;;4.64
43802;BMP280;29429;51.074;13.764;2022-12-07T17:25:26;99452.09;;;4.56
43802;BMP280;29429;51.074;13.764;2022-12-07T17:27:55;99478.78;;;4.69
43802;BMP280;29429;51.074;13.764;2022-12-07T17:30:22;99469.91;;;4.62
43802;BMP280;29429;51.074;13.764;2022-12-07T17:32:51;99465.09;;;4.66
43802;BMP280;29429;51.074;13.764;2022-12-07T17:35:21;99467.25;;;4.62
43802;BMP280;29429;51.074;13.764;2022-12-07T17:37:48;99473.50;;;4.69
43802;BMP280;29429;51.074;13.764;2022-12-07T17:40:16;99469.03;;;4.70
43802;BMP280;29429;51.074;13.764;2022-12-07T17:42:46;99461.28;;;4.68
43802;BMP280;29429;51.074;13.764;2022-12-07T17:45:17;99478.13;;;4.67
43802;BMP280;29429;51.074;13.764;2022-12-07T17:47:43;99472.84;;;4.67
43802;BMP280;29429;51.074;13.764;2022-12-07T17:50:11;99477.16;;;4.68
43802;BMP280;29429;51.074;13.764;2022-12-07T17:52:41;99480.09;;;4.73
43802;BMP280;29429;51.074;13.764;2022-12-07T17:55:29;99466.88;;;4.73
43802;BMP280;29429;51.074;13.764;2022-12-07T17:58:14;99478.56;;;4.79